createdAt,value
2018-11-04T00:17:58.283Z,16.70
2018-11-04T00:20:27.333Z,15.03
2018-11-04T00:22:56.235Z,16.47
2018-11-04T00:25:25.187Z,15.47
2018-11-04T00:27:54.082Z,15.63
2018-11-04T00:30:24.138Z,16.10
2018-11-04T00:32:53.025Z,15.37
2018-11-04T00:35:22.090Z,15.13
2018-11-04T00:37:51.014Z,15.50
2018-11-04T00:40:20.055Z,16.70
2018-11-04T00:42:48.897Z,16.70
2018-11-04T00:45:17.986Z,16.20
2018-11-04T00:47:46.841Z,15.63
2018-11-04T00:50:16.868Z,15.67
2018-11-04T00:52:45.859Z,16.13
2018-11-04T00:55:15.906Z,16.13
2018-11-04T00:57:44.784Z,15.37
2018-11-04T01:00:16.321Z,15.30
2018-11-04T01:02:46.194Z,15.30
2018-11-04T01:05:19.967Z,16.50
2018-11-04T01:07:48.872Z,15.20
2018-11-04T01:10:17.840Z,15.47
2018-11-04T01:12:46.763Z,16.50
2018-11-04T01:15:16.112Z,17.23
2018-11-04T01:17:45.040Z,16.93
2018-11-04T01:20:15.317Z,17.17
2018-11-04T01:22:44.667Z,17.60
2018-11-04T01:25:14.230Z,16.07
2018-11-04T01:27:43.136Z,16.40
2018-11-04T01:30:14.008Z,17.73
2018-11-04T01:32:43.106Z,18.30
2018-11-04T01:35:12.057Z,17.47
2018-11-04T01:37:40.889Z,18.17
2018-11-04T01:40:10.551Z,16.33
2018-11-04T01:42:39.654Z,15.57
2018-11-04T01:45:10.320Z,17.87
2018-11-04T01:47:39.338Z,15.50
2018-11-04T01:50:11.708Z,16.97
2018-11-04T01:52:40.535Z,16.13
2018-11-04T01:55:10.240Z,17.50
2018-11-04T01:57:39.155Z,16.87
2018-11-04T02:00:12.604Z,16.50
2018-11-04T02:02:41.999Z,15.43
2018-11-04T02:05:11.862Z,16.50
2018-11-04T02:07:41.087Z,18.07
2018-11-04T02:10:12.365Z,18.13
2018-11-04T02:12:41.226Z,16.13
2018-11-04T02:15:11.835Z,18.33
2018-11-04T02:17:40.770Z,16.70
2018-11-04T02:20:11.525Z,17.70
2018-11-04T02:22:40.739Z,16.40
2018-11-04T02:25:10.983Z,16.73
2018-11-04T02:27:40.096Z,15.00
2018-11-04T02:30:11.782Z,15.77
2018-11-04T02:32:40.805Z,16.03
2018-11-04T02:35:09.837Z,15.13
2018-11-04T02:37:39.024Z,17.27
2018-11-04T02:40:08.051Z,17.83
2018-11-04T02:42:37.144Z,17.97
2018-11-04T02:45:06.909Z,17.63
2018-11-04T02:47:36.104Z,16.90
2018-11-04T02:50:05.409Z,16.50
2018-11-04T02:52:34.294Z,16.13
2018-11-04T02:55:03.340Z,16.23
2018-11-04T02:57:34.142Z,17.60
2018-11-04T03:00:03.252Z,17.37
2018-11-04T03:02:32.111Z,16.87
2018-11-04T03:05:01.126Z,15.90
2018-11-04T03:07:30.070Z,15.50
2018-11-04T03:10:01.094Z,15.80
2018-11-04T03:12:30.019Z,15.93
2018-11-04T03:14:59.537Z,15.53
2018-11-04T03:17:28.436Z,16.53
2018-11-04T03:19:57.470Z,16.03
2018-11-04T03:22:26.757Z,15.97
2018-11-04T03:24:57.743Z,14.47
2018-11-04T03:27:26.653Z,15.27
2018-11-04T03:29:55.728Z,18.00
2018-11-04T03:32:24.619Z,17.40
2018-11-04T03:34:53.622Z,17.77
2018-11-04T03:37:22.546Z,16.87
2018-11-04T03:39:51.532Z,16.27
2018-11-04T03:42:20.494Z,17.17
2018-11-04T03:44:49.537Z,15.97
2018-11-04T03:47:18.438Z,17.20
2018-11-04T03:49:47.460Z,16.97
2018-11-04T03:52:16.393Z,15.47
2018-11-04T03:54:45.392Z,16.10
2018-11-04T03:57:14.261Z,17.63
2018-11-04T03:59:43.283Z,16.70
2018-11-04T04:02:12.176Z,17.03
2018-11-04T04:04:42.177Z,15.43
2018-11-04T04:07:11.188Z,18.00
2018-11-04T04:09:40.152Z,16.73
2018-11-04T04:12:09.008Z,16.50
2018-11-04T04:14:38.092Z,18.37
2018-11-04T04:17:06.973Z,17.90
2018-11-04T04:19:37.509Z,15.60
2018-11-04T04:22:06.453Z,16.73
2018-11-04T04:24:35.512Z,17.13
2018-11-04T04:27:04.416Z,16.50
2018-11-04T04:29:33.462Z,16.77
2018-11-04T04:32:02.417Z,17.20
2018-11-04T04:34:32.259Z,16.63
2018-11-04T04:37:01.116Z,15.73
2018-11-04T04:39:30.132Z,15.80
2018-11-04T04:41:59.000Z,16.07
2018-11-04T04:44:28.001Z,15.73
2018-11-04T04:46:56.888Z,17.47
2018-11-04T04:49:25.864Z,17.57
2018-11-04T04:51:54.792Z,17.90
2018-11-04T04:54:23.880Z,17.87
2018-11-04T04:56:53.087Z,18.43
2018-11-04T04:59:24.164Z,16.83
2018-11-04T05:01:53.117Z,17.47
2018-11-04T05:04:22.143Z,16.87
2018-11-04T05:06:51.048Z,17.93
2018-11-04T05:09:20.112Z,17.50
2018-11-04T05:11:49.036Z,16.07
2018-11-04T05:14:18.124Z,17.27
2018-11-04T05:16:47.058Z,16.30
2018-11-04T05:19:16.066Z,17.93
2018-11-04T05:21:44.981Z,17.77
2018-11-04T05:24:13.959Z,18.90
2018-11-04T05:26:42.992Z,17.90
2018-11-04T05:29:12.033Z,17.00
2018-11-04T05:31:41.032Z,19.63
2018-11-04T05:34:12.161Z,18.77
2018-11-04T05:36:41.059Z,19.57
2018-11-04T05:39:11.746Z,18.33
2018-11-04T05:41:40.999Z,19.00
2018-11-04T05:44:09.969Z,19.47
2018-11-04T05:46:38.850Z,18.33
2018-11-04T05:49:07.850Z,20.13
2018-11-04T05:51:36.723Z,18.73
2018-11-04T05:54:05.950Z,22.17
2018-11-04T05:56:34.790Z,23.37
2018-11-04T05:59:05.799Z,20.70
2018-11-04T06:01:34.683Z,20.93
2018-11-04T06:04:04.697Z,21.07
2018-11-04T06:06:33.546Z,22.03
2018-11-04T06:09:02.658Z,23.03
2018-11-04T06:11:31.532Z,26.03
2018-11-04T06:14:00.573Z,25.37
2018-11-04T06:16:29.382Z,24.03
2018-11-04T06:18:58.364Z,26.77
2018-11-04T06:21:27.212Z,25.77
2018-11-04T06:23:56.208Z,25.10
2018-11-04T06:26:25.200Z,27.80
2018-11-04T06:28:54.307Z,27.80
2018-11-04T06:31:23.151Z,29.67
2018-11-04T06:33:55.750Z,29.63
2018-11-04T06:36:24.672Z,31.27
2018-11-04T06:38:53.649Z,32.30
2018-11-04T06:41:22.494Z,32.30
2018-11-04T06:43:51.425Z,31.10
2018-11-04T06:46:20.355Z,31.20
2018-11-04T06:48:49.371Z,33.30
2018-11-04T06:51:18.242Z,31.53
2018-11-04T06:53:47.212Z,34.40
2018-11-04T06:56:16.135Z,33.10
2018-11-04T06:58:45.128Z,33.43
2018-11-04T07:01:14.035Z,32.40
2018-11-04T07:03:52.946Z,31.57
2018-11-04T07:06:25.553Z,34.63
2018-11-04T07:08:54.526Z,31.20
2018-11-04T07:11:23.681Z,31.27
2018-11-04T07:13:52.686Z,31.23
2018-11-04T07:16:21.748Z,31.73
2018-11-04T07:18:50.647Z,31.57
2018-11-04T07:21:19.889Z,30.70
2018-11-04T07:23:48.798Z,28.67
2018-11-04T07:26:17.832Z,31.00
2018-11-04T07:28:47.942Z,28.80
2018-11-04T07:31:17.095Z,27.97
2018-11-04T07:33:46.048Z,30.73
2018-11-04T07:36:16.267Z,31.80
2018-11-04T07:38:45.187Z,32.47
2018-11-04T07:41:15.132Z,29.87
2018-11-04T07:43:44.033Z,30.27
2018-11-04T07:46:12.967Z,29.07
2018-11-04T07:48:42.436Z,30.07
2018-11-04T07:51:12.405Z,28.47
2018-11-04T07:53:41.328Z,29.93
2018-11-04T07:56:10.255Z,31.00
2018-11-04T07:58:39.165Z,29.97
2018-11-04T08:01:08.203Z,31.73
2018-11-04T08:03:37.101Z,30.50
2018-11-04T08:06:06.408Z,30.07
2018-11-04T08:08:35.282Z,32.67
2018-11-04T08:11:04.471Z,31.97
2018-11-04T08:13:33.363Z,29.43
2018-11-04T08:16:02.416Z,30.90
2018-11-04T08:18:31.313Z,32.80
2018-11-04T08:21:00.304Z,30.27
2018-11-04T08:23:29.182Z,26.20
2018-11-04T08:26:00.151Z,32.23
2018-11-04T08:28:29.038Z,28.30
2018-11-04T08:30:59.053Z,28.47
2018-11-04T08:33:28.409Z,28.20
2018-11-04T08:35:57.590Z,29.53
2018-11-04T08:38:26.516Z,32.73
2018-11-04T08:40:57.609Z,32.93
2018-11-04T08:43:26.551Z,29.93
2018-11-04T08:45:56.682Z,35.20
2018-11-04T08:48:25.575Z,34.10
2018-11-04T08:50:58.254Z,32.13
2018-11-04T08:53:27.147Z,27.10
2018-11-04T08:55:58.172Z,35.33
2018-11-04T08:58:27.109Z,30.67
2018-11-04T09:00:56.217Z,27.37
2018-11-04T09:03:25.090Z,32.07
2018-11-04T09:05:54.135Z,34.03
2018-11-04T09:08:23.363Z,33.10
2018-11-04T09:10:56.927Z,27.57
2018-11-04T09:13:25.754Z,32.37
2018-11-04T09:15:54.934Z,32.20
2018-11-04T09:18:23.830Z,30.20
2018-11-04T09:20:53.068Z,31.60
2018-11-04T09:23:21.991Z,34.73
2018-11-04T09:25:53.020Z,33.80
2018-11-04T09:28:21.935Z,32.17
2018-11-04T09:30:54.459Z,30.10
2018-11-04T09:33:23.366Z,30.50
2018-11-04T09:35:52.648Z,32.30
2018-11-04T09:38:21.525Z,29.70
2018-11-04T09:40:55.176Z,32.30
2018-11-04T09:43:24.335Z,32.97
2018-11-04T09:45:53.455Z,32.83
2018-11-04T09:48:22.368Z,30.97
2018-11-04T09:50:51.576Z,31.93
2018-11-04T09:53:20.511Z,30.93
2018-11-04T09:55:49.879Z,31.10
2018-11-04T09:58:19.239Z,28.43
2018-11-04T10:00:48.218Z,29.60
2018-11-04T10:03:17.136Z,27.73
2018-11-04T10:05:46.118Z,30.00
2018-11-04T10:08:15.067Z,28.93
2018-11-04T10:10:45.089Z,28.23
2018-11-04T10:13:14.025Z,27.33
2018-11-04T10:15:43.092Z,30.23
2018-11-04T10:18:12.198Z,29.63
2018-11-04T10:20:41.464Z,28.67
2018-11-04T10:23:10.134Z,28.73
2018-11-04T10:25:40.238Z,29.40
2018-11-04T10:28:09.209Z,29.93
2018-11-04T10:30:38.228Z,29.60
2018-11-04T10:33:07.589Z,28.93
2018-11-04T10:35:37.238Z,26.77
2018-11-04T10:38:06.646Z,27.20
2018-11-04T10:40:36.751Z,27.50
2018-11-04T10:43:05.921Z,26.57
2018-11-04T10:45:34.961Z,27.40
2018-11-04T10:48:03.966Z,27.00
2018-11-04T10:50:33.125Z,28.03
2018-11-04T10:53:02.055Z,29.80
2018-11-04T10:55:31.160Z,27.97
2018-11-04T10:58:00.084Z,28.90
2018-11-04T11:00:34.486Z,26.50
2018-11-04T11:03:04.105Z,27.13
2018-11-04T11:05:35.227Z,29.40
2018-11-04T11:08:04.143Z,26.57
2018-11-04T11:10:34.275Z,27.47
2018-11-04T11:13:03.181Z,27.87
2018-11-04T11:24:12.686Z,27.13
2018-11-04T11:26:41.517Z,28.13
2018-11-04T11:29:10.346Z,26.73
2018-11-04T11:31:39.208Z,27.77
2018-11-04T11:34:08.021Z,25.43
2018-11-04T11:36:37.769Z,25.73
2018-11-04T11:39:11.356Z,27.17
2018-11-04T11:41:42.168Z,24.57
2018-11-04T11:44:11.231Z,30.33
2018-11-04T11:46:40.261Z,27.93
2018-11-04T11:49:10.734Z,28.87
2018-11-04T11:51:39.584Z,28.10
2018-11-04T11:54:10.457Z,27.93
2018-11-04T11:56:39.344Z,27.67
2018-11-04T11:59:08.215Z,28.90
2018-11-04T12:01:37.096Z,28.97
2018-11-04T12:04:06.882Z,28.97
2018-11-04T12:06:35.834Z,30.90
2018-11-04T12:09:06.105Z,28.97
2018-11-04T12:11:36.881Z,30.53
2018-11-04T12:14:05.903Z,34.47
2018-11-04T12:16:34.994Z,34.33
2018-11-04T12:19:03.919Z,32.60
2018-11-04T12:21:33.060Z,29.67
2018-11-04T12:24:01.906Z,29.20
2018-11-04T12:26:30.816Z,29.27
2018-11-04T12:28:59.845Z,28.90
2018-11-04T12:31:28.675Z,29.93
2018-11-04T12:33:57.504Z,27.73
2018-11-04T12:36:26.495Z,28.00
2018-11-04T12:38:55.403Z,27.73
2018-11-04T12:41:24.326Z,25.27
2018-11-04T12:43:53.266Z,29.67
2018-11-04T12:46:22.223Z,27.43
2018-11-04T12:48:51.706Z,28.03
2018-11-04T12:51:20.611Z,28.00
2018-11-04T12:53:49.501Z,26.50
2018-11-04T12:56:18.427Z,28.60
2018-11-04T12:58:47.309Z,26.87
2018-11-04T13:01:16.199Z,27.27
2018-11-04T13:03:45.089Z,26.03
2018-11-04T13:06:14.024Z,28.60
2018-11-04T13:08:42.840Z,27.97
2018-11-04T13:11:11.687Z,27.70
2018-11-04T13:13:40.568Z,28.43
2018-11-04T13:16:09.429Z,28.17
2018-11-04T13:18:38.256Z,28.77
2018-11-04T13:21:07.249Z,28.47
2018-11-04T13:23:36.079Z,29.00
2018-11-04T13:26:04.972Z,26.27
2018-11-04T13:28:33.851Z,27.20
2018-11-04T13:31:02.741Z,26.07
2018-11-04T13:33:31.643Z,27.57
2018-11-04T13:36:00.736Z,26.03
2018-11-04T13:38:29.592Z,28.00
2018-11-04T13:40:58.476Z,26.50
2018-11-04T13:43:27.462Z,27.30
2018-11-04T13:45:56.538Z,29.03
2018-11-04T13:48:25.788Z,26.10
2018-11-04T13:50:54.859Z,26.10
2018-11-04T13:53:23.783Z,26.77
2018-11-04T13:55:52.669Z,28.27
2018-11-04T13:58:21.535Z,29.03
2018-11-04T14:00:50.878Z,27.67
2018-11-04T14:03:19.741Z,27.10
2018-11-04T14:05:48.720Z,28.53
2018-11-04T14:08:17.625Z,28.37
2018-11-04T14:10:46.554Z,28.23
2018-11-04T14:13:15.537Z,27.93
2018-11-04T14:15:44.436Z,26.70
2018-11-04T14:18:13.536Z,26.70
2018-11-04T14:20:42.579Z,27.73
2018-11-04T14:23:11.522Z,24.47
2018-11-04T14:25:40.379Z,26.17
2018-11-04T14:28:09.257Z,26.23
2018-11-04T14:30:38.052Z,25.37
2018-11-04T14:33:07.295Z,24.73
2018-11-04T14:35:36.778Z,26.10
2018-11-04T14:38:05.729Z,25.80
2018-11-04T14:40:34.661Z,23.53
2018-11-04T14:43:03.548Z,22.13
2018-11-04T14:45:32.462Z,23.07
2018-11-04T14:48:01.494Z,22.13
2018-11-04T14:50:30.342Z,23.07
2018-11-04T14:52:59.331Z,23.63
2018-11-04T14:55:28.187Z,22.73
2018-11-04T14:57:57.014Z,20.30
2018-11-04T15:00:25.933Z,22.33
2018-11-04T15:02:54.822Z,22.13
2018-11-04T15:05:23.689Z,24.33
2018-11-04T15:07:52.578Z,22.73
2018-11-04T15:10:21.545Z,24.23
2018-11-04T15:12:50.410Z,21.40
2018-11-04T15:15:19.546Z,23.90
2018-11-04T15:17:48.400Z,23.97
2018-11-04T15:20:17.310Z,25.17
2018-11-04T15:22:48.227Z,22.93
2018-11-04T15:25:18.451Z,24.57
2018-11-04T15:27:47.728Z,22.73
2018-11-04T15:30:16.630Z,24.47
2018-11-04T15:32:45.572Z,24.73
2018-11-04T15:35:15.274Z,24.90
2018-11-04T15:37:44.221Z,25.70
2018-11-04T15:40:14.214Z,24.53
2018-11-04T15:42:43.104Z,23.70
2018-11-04T15:45:13.425Z,22.73
2018-11-04T15:47:42.630Z,23.33
2018-11-04T15:50:13.477Z,22.80
2018-11-04T15:52:42.367Z,25.37
2018-11-04T15:55:11.207Z,24.60
2018-11-04T15:57:40.101Z,24.07
2018-11-04T16:00:10.499Z,25.07
2018-11-04T16:02:39.471Z,25.13
2018-11-04T16:05:09.216Z,24.93
2018-11-04T16:07:38.008Z,25.37
2018-11-04T16:10:08.223Z,23.10
2018-11-04T16:12:37.438Z,22.97
2018-11-04T16:15:08.320Z,27.73
2018-11-04T16:17:37.331Z,27.03
2018-11-04T16:20:07.706Z,27.43
2018-11-04T16:22:36.651Z,23.23
2018-11-04T16:25:06.130Z,28.43
2018-11-04T16:27:35.011Z,25.47
2018-11-04T16:30:03.827Z,26.80
2018-11-04T16:32:32.701Z,28.20
2018-11-04T16:35:01.544Z,27.40
2018-11-04T16:37:30.473Z,28.57
2018-11-04T16:39:59.329Z,42.27
2018-11-04T16:42:28.258Z,30.10
2018-11-04T16:44:57.172Z,27.60
2018-11-04T16:47:25.991Z,27.57
2018-11-04T16:49:54.802Z,28.30
2018-11-04T16:52:23.754Z,29.13
2018-11-04T16:54:52.613Z,27.93
2018-11-04T16:57:21.525Z,27.20
2018-11-04T16:59:52.036Z,26.53
2018-11-04T17:02:21.173Z,28.37
2018-11-04T17:04:56.024Z,22.83
2018-11-04T17:07:24.859Z,26.00
2018-11-04T17:09:53.770Z,24.10
2018-11-04T17:12:22.652Z,24.67
2018-11-04T17:14:51.505Z,23.20
2018-11-04T17:17:20.376Z,22.23
2018-11-04T17:19:49.422Z,20.47
2018-11-04T17:22:18.305Z,20.40
2018-11-04T17:24:47.122Z,19.30
2018-11-04T17:27:15.970Z,20.10
2018-11-04T17:29:44.761Z,19.70
2018-11-04T17:32:13.679Z,19.20
2018-11-04T17:34:42.486Z,18.77
2018-11-04T17:37:11.607Z,16.43
2018-11-04T17:39:40.495Z,17.53
2018-11-04T17:42:09.327Z,15.43
2018-11-04T17:44:38.245Z,15.73
2018-11-04T17:47:07.044Z,14.30
2018-11-04T17:49:36.309Z,14.57
2018-11-04T17:52:05.202Z,14.20
2018-11-04T17:54:34.043Z,13.80
2018-11-04T17:57:02.841Z,13.07
2018-11-04T17:59:31.658Z,13.30
2018-11-04T18:02:00.710Z,12.60
2018-11-04T18:04:29.946Z,12.27
2018-11-04T18:06:59.239Z,11.53
2018-11-04T18:09:28.069Z,11.67
2018-11-04T18:11:56.891Z,11.50
2018-11-04T18:14:25.725Z,11.53
2018-11-04T18:16:54.611Z,10.67
2018-11-04T18:19:23.417Z,12.17
2018-11-04T18:21:52.261Z,11.80
2018-11-04T18:24:21.164Z,10.53
2018-11-04T18:26:50.046Z,9.83
2018-11-04T18:29:18.823Z,10.50
2018-11-04T18:31:47.669Z,11.43
2018-11-04T18:34:16.471Z,11.03
2018-11-04T18:36:45.275Z,11.53
2018-11-04T18:39:14.156Z,11.30
2018-11-04T18:41:43.003Z,12.43
2018-11-04T18:44:11.872Z,12.87
2018-11-04T18:46:40.690Z,12.60
2018-11-04T18:49:09.544Z,12.43
2018-11-04T18:51:38.320Z,12.87
2018-11-04T18:54:07.171Z,11.87
2018-11-04T18:56:35.973Z,13.37
2018-11-04T18:59:05.195Z,12.87
2018-11-04T19:01:34.155Z,12.67
2018-11-04T19:04:02.997Z,11.53
2018-11-04T19:06:31.826Z,12.03
2018-11-04T19:09:00.677Z,11.80
2018-11-04T19:11:29.555Z,12.20
2018-11-04T19:13:58.387Z,11.87
2018-11-04T19:16:27.131Z,12.07
2018-11-04T19:18:56.029Z,11.63
2018-11-04T19:21:24.889Z,12.53
2018-11-04T19:23:53.688Z,13.37
2018-11-04T19:26:22.509Z,12.97
2018-11-04T19:28:51.346Z,12.83
2018-11-04T19:31:20.254Z,13.63
2018-11-04T19:33:49.005Z,14.00
2018-11-04T19:36:17.871Z,12.67
2018-11-04T19:38:46.744Z,12.57
2018-11-04T19:41:15.605Z,12.77
2018-11-04T19:43:44.519Z,12.50
2018-11-04T19:46:13.358Z,12.03
2018-11-04T19:48:42.279Z,11.80
2018-11-04T19:51:11.163Z,12.87
2018-11-04T19:53:40.096Z,12.53
2018-11-04T19:56:09.310Z,13.20
2018-11-04T19:58:38.169Z,13.67
2018-11-04T20:01:07.814Z,15.20
2018-11-04T20:03:36.605Z,14.27
2018-11-04T20:06:05.909Z,13.07
2018-11-04T20:08:34.750Z,13.50
2018-11-04T20:11:03.650Z,11.73
2018-11-04T20:13:37.796Z,13.47
2018-11-04T20:16:06.586Z,14.20
2018-11-04T20:18:40.617Z,13.13
2018-11-04T20:21:09.562Z,13.37
2018-11-04T20:23:38.527Z,13.03
2018-11-04T20:26:09.153Z,13.90
2018-11-04T20:28:38.024Z,11.67
2018-11-04T20:31:06.948Z,13.43
2018-11-04T20:33:35.836Z,13.73
2018-11-04T20:36:04.717Z,12.90
2018-11-04T20:38:38.806Z,13.03
2018-11-04T20:41:12.963Z,11.43
2018-11-04T20:43:41.798Z,12.07
2018-11-04T20:46:10.641Z,12.70
2018-11-04T20:48:45.141Z,11.93
2018-11-04T20:51:14.048Z,12.90
2018-11-04T20:53:42.858Z,15.47
2018-11-04T20:56:17.415Z,15.27
2018-11-04T20:58:46.290Z,13.97
2018-11-04T21:01:15.190Z,14.20
2018-11-04T21:03:44.105Z,14.40
2018-11-04T21:06:12.979Z,14.13
2018-11-04T21:08:42.021Z,14.40
2018-11-04T21:11:10.674Z,14.00
2018-11-04T21:13:39.808Z,14.77
2018-11-04T21:16:08.747Z,14.57
2018-11-04T21:18:37.547Z,15.33
2018-11-04T21:21:06.387Z,14.60
2018-11-04T21:23:35.200Z,16.53
2018-11-04T21:26:04.027Z,15.27
2018-11-04T21:28:33.056Z,15.87
2018-11-04T21:31:01.818Z,16.27
2018-11-04T21:33:30.657Z,15.53
2018-11-04T21:35:59.551Z,15.60
2018-11-04T21:38:28.382Z,15.80
2018-11-04T21:40:57.212Z,15.60
2018-11-04T21:43:26.249Z,16.03
2018-11-04T21:45:54.921Z,16.70
2018-11-04T21:48:23.724Z,16.20
2018-11-04T21:50:52.565Z,15.40
2018-11-04T21:53:21.415Z,15.90
2018-11-04T21:55:50.954Z,16.70
2018-11-04T21:58:19.810Z,15.10
2018-11-04T22:00:48.603Z,14.60
2018-11-04T22:03:17.529Z,16.30
2018-11-04T22:05:48.366Z,15.57
2018-11-04T22:08:17.229Z,14.37
2018-11-04T22:10:46.090Z,15.10
2018-11-04T22:13:14.898Z,15.43
2018-11-04T22:15:43.724Z,15.73
2018-11-04T22:18:12.578Z,15.10
2018-11-04T22:20:41.375Z,15.90
2018-11-04T22:23:10.225Z,14.07
2018-11-04T22:25:39.038Z,14.87
2018-11-04T22:28:07.860Z,15.37
2018-11-04T22:30:36.699Z,14.40
2018-11-04T22:33:05.577Z,14.80
2018-11-04T22:35:34.469Z,13.77
2018-11-04T22:38:03.254Z,14.90
2018-11-04T22:40:32.073Z,14.77
2018-11-04T22:43:00.895Z,15.00
2018-11-04T22:45:29.698Z,13.63
2018-11-04T22:47:58.535Z,14.37
2018-11-04T22:50:27.345Z,14.60
2018-11-04T22:52:56.160Z,13.33
2018-11-04T22:55:24.975Z,13.30
2018-11-04T22:57:58.010Z,14.40
2018-11-04T23:00:32.071Z,14.27
2018-11-04T23:03:00.850Z,13.77
2018-11-04T23:05:29.639Z,13.23
2018-11-04T23:07:58.521Z,13.97
2018-11-04T23:10:27.379Z,13.70
2018-11-04T23:12:56.197Z,14.70
2018-11-04T23:15:25.091Z,13.67
2018-11-04T23:17:53.953Z,13.97
2018-11-04T23:20:22.763Z,13.53
2018-11-04T23:22:51.573Z,13.13
2018-11-04T23:25:20.520Z,14.87
2018-11-04T23:27:49.356Z,13.17
2018-11-04T23:30:19.226Z,13.77
2018-11-04T23:32:48.402Z,14.50
2018-11-04T23:35:17.290Z,14.00
2018-11-04T23:37:46.114Z,14.37
2018-11-04T23:40:14.922Z,14.70
2018-11-04T23:42:43.816Z,14.20
2018-11-04T23:45:13.839Z,15.00
2018-11-04T23:47:43.054Z,14.87
2018-11-04T23:50:14.779Z,14.17
2018-11-04T23:52:44.169Z,15.63
2018-11-04T23:55:13.917Z,15.13
2018-11-04T23:57:42.758Z,15.03
